createdAt,value
2022-09-22T00:01:26.114Z,6.93
2022-09-22T00:03:56.110Z,6.94
2022-09-22T00:06:25.774Z,6.96
2022-09-22T00:08:57.369Z,6.94
2022-09-22T00:11:28.406Z,6.93
2022-09-22T00:13:59.007Z,6.95
2022-09-22T00:16:30.331Z,6.91
2022-09-22T00:18:58.766Z,6.87
2022-09-22T00:21:27.948Z,6.85
2022-09-22T00:23:57.521Z,6.83
2022-09-22T00:26:25.710Z,6.80
2022-09-22T00:28:53.419Z,6.76
2022-09-22T00:31:22.957Z,6.75
2022-09-22T00:33:51.248Z,6.74
2022-09-22T00:36:20.234Z,6.75
2022-09-22T00:38:50.463Z,6.72
2022-09-22T00:41:23.262Z,6.70
2022-09-22T00:43:52.479Z,6.68
2022-09-22T00:46:26.506Z,6.69
2022-09-22T00:48:58.867Z,6.68
2022-09-22T00:51:33.874Z,6.68
2022-09-22T00:54:05.551Z,6.60
2022-09-22T00:56:40.475Z,6.59
2022-09-22T00:59:12.910Z,6.54
2022-09-22T01:01:40.919Z,6.36
2022-09-22T01:04:08.995Z,6.18
2022-09-22T01:06:39.506Z,6.09
2022-09-22T01:09:08.958Z,5.96
2022-09-22T01:11:40.723Z,5.93
2022-09-22T01:14:19.427Z,5.92
2022-09-22T01:16:55.195Z,5.94
2022-09-22T01:19:47.100Z,5.96
2022-09-22T01:22:33.426Z,5.99
2022-09-22T01:25:17.410Z,5.97
2022-09-22T01:28:20.821Z,5.98
2022-09-22T01:30:58.625Z,6.03
2022-09-22T01:33:36.045Z,6.01
2022-09-22T01:36:21.768Z,6.02
2022-09-22T01:39:02.837Z,6.01
2022-09-22T01:41:47.171Z,5.96
2022-09-22T01:44:21.618Z,5.86
2022-09-22T01:46:55.750Z,5.84
2022-09-22T01:49:29.301Z,5.80
2022-09-22T01:52:01.355Z,5.76
2022-09-22T01:54:34.096Z,5.75
2022-09-22T01:57:15.139Z,5.71
2022-09-22T01:59:47.862Z,5.70
2022-09-22T02:02:23.862Z,5.69
2022-09-22T02:04:55.593Z,5.69
2022-09-22T02:07:29.038Z,5.67
2022-09-22T02:09:58.335Z,5.65
2022-09-22T02:12:26.537Z,5.64
2022-09-22T02:14:54.327Z,5.63
2022-09-22T02:17:23.957Z,5.66
2022-09-22T02:19:52.254Z,5.66
2022-09-22T02:22:20.272Z,5.67
2022-09-22T02:24:48.582Z,5.70
2022-09-22T02:27:25.601Z,5.70
2022-09-22T02:29:58.091Z,5.74
2022-09-22T02:32:28.682Z,5.75
2022-09-22T02:34:57.005Z,5.74
2022-09-22T02:37:33.874Z,5.73
2022-09-22T02:40:08.854Z,5.73
2022-09-22T02:42:43.225Z,5.71
2022-09-22T02:45:17.301Z,5.72
2022-09-22T02:47:51.856Z,5.70
2022-09-22T02:50:22.306Z,5.72
2022-09-22T02:52:52.781Z,5.73
2022-09-22T02:55:20.696Z,5.71
2022-09-22T02:57:48.738Z,5.72
2022-09-22T03:00:16.897Z,5.74
2022-09-22T03:02:46.281Z,5.73
2022-09-22T03:05:14.005Z,5.74
2022-09-22T03:07:42.431Z,5.76
2022-09-22T03:10:11.123Z,5.77
2022-09-22T03:13:02.352Z,5.76
2022-09-22T03:15:30.820Z,5.76
2022-09-22T03:18:00.272Z,5.76
2022-09-22T03:20:27.975Z,5.77
2022-09-22T03:22:56.503Z,5.75
2022-09-22T03:25:24.793Z,5.72
2022-09-22T03:27:52.475Z,5.70
2022-09-22T03:30:20.335Z,5.69
2022-09-22T03:32:48.441Z,5.66
2022-09-22T03:35:17.682Z,5.66
2022-09-22T03:37:46.791Z,5.67
2022-09-22T03:40:14.863Z,5.66
2022-09-22T03:42:42.938Z,5.66
2022-09-22T03:45:12.687Z,5.68
2022-09-22T03:47:40.764Z,5.67
2022-09-22T03:50:09.926Z,5.69
2022-09-22T03:52:40.414Z,5.69
2022-09-22T03:55:09.451Z,5.69
2022-09-22T03:57:37.378Z,5.69
2022-09-22T04:00:06.910Z,5.71
2022-09-22T04:02:40.454Z,5.70
2022-09-22T04:05:09.502Z,5.69
2022-09-22T04:07:39.048Z,5.65
2022-09-22T04:10:07.806Z,5.63
2022-09-22T04:12:37.243Z,5.63
2022-09-22T04:15:06.454Z,5.61
2022-09-22T04:17:34.159Z,5.61
2022-09-22T04:20:03.051Z,5.59
2022-09-22T04:22:30.855Z,5.57
2022-09-22T04:25:00.741Z,5.56
2022-09-22T04:27:28.428Z,5.45
2022-09-22T04:29:57.136Z,5.41
2022-09-22T04:32:24.858Z,5.40
2022-09-22T04:34:52.591Z,5.36
2022-09-22T04:37:20.270Z,5.36
2022-09-22T04:39:47.975Z,5.31
2022-09-22T04:42:17.107Z,5.31
2022-09-22T04:44:46.198Z,5.23
2022-09-22T04:47:13.935Z,5.21
2022-09-22T04:49:42.376Z,5.18
2022-09-22T04:52:10.641Z,5.17
2022-09-22T04:54:38.710Z,5.19
2022-09-22T04:57:06.784Z,5.18
2022-09-22T04:59:36.597Z,5.21
2022-09-22T05:02:04.444Z,5.20
2022-09-22T05:04:32.984Z,5.20
2022-09-22T05:07:00.656Z,5.18
2022-09-22T05:09:28.850Z,5.17
2022-09-22T05:12:00.930Z,5.19
2022-09-22T05:14:29.610Z,5.18
2022-09-22T05:16:58.735Z,5.20
2022-09-22T05:19:26.717Z,5.19
2022-09-22T05:21:54.405Z,5.22
2022-09-22T05:24:22.444Z,5.27
2022-09-22T05:26:50.357Z,5.25
2022-09-22T05:29:18.725Z,5.29
2022-09-22T05:31:46.596Z,5.33
2022-09-22T05:34:16.199Z,5.40
2022-09-22T05:36:43.883Z,5.48
2022-09-22T05:39:12.295Z,5.58
2022-09-22T05:41:39.988Z,5.65
2022-09-22T05:44:07.781Z,5.73
2022-09-22T05:46:35.473Z,5.82
2022-09-22T05:49:03.654Z,5.90
2022-09-22T05:51:32.951Z,6.02
2022-09-22T05:54:00.653Z,6.14
2022-09-22T05:56:28.653Z,6.25
2022-09-22T05:58:56.298Z,6.36
2022-09-22T06:01:24.414Z,6.46
2022-09-22T06:03:52.114Z,6.55
2022-09-22T06:06:20.265Z,6.66
2022-09-22T06:08:49.394Z,6.71
2022-09-22T06:11:17.712Z,6.80
2022-09-22T06:13:46.068Z,6.89
2022-09-22T06:16:14.230Z,7.01
2022-09-22T06:18:41.963Z,7.11
2022-09-22T06:21:10.921Z,7.19
2022-09-22T06:23:42.687Z,7.33
2022-09-22T06:26:12.394Z,7.44
2022-09-22T06:28:40.050Z,7.56
2022-09-22T06:31:08.297Z,7.67
2022-09-22T06:33:36.047Z,7.80
2022-09-22T06:36:04.495Z,7.91
2022-09-22T06:38:32.909Z,8.04
2022-09-22T06:41:04.271Z,8.19
2022-09-22T06:43:37.741Z,8.35
2022-09-22T06:46:06.303Z,8.49
2022-09-22T06:48:34.466Z,8.52
2022-09-22T06:51:02.290Z,8.61
2022-09-22T06:53:30.891Z,8.69
2022-09-22T06:56:03.526Z,8.73
2022-09-22T06:58:42.386Z,8.75
2022-09-22T07:01:21.356Z,8.79
2022-09-22T07:03:49.333Z,8.79
2022-09-22T07:06:20.401Z,8.87
2022-09-22T07:08:49.826Z,8.97
2022-09-22T07:11:23.639Z,9.16
2022-09-22T07:13:53.412Z,9.40
2022-09-22T07:16:24.843Z,9.57
2022-09-22T07:18:54.510Z,9.80
2022-09-22T07:21:24.684Z,9.93
2022-09-22T07:23:55.538Z,10.11
2022-09-22T07:26:26.426Z,10.32
2022-09-22T07:28:55.379Z,10.45
2022-09-22T07:31:28.585Z,10.47
2022-09-22T07:34:00.622Z,10.47
2022-09-22T07:36:30.506Z,10.51
2022-09-22T07:38:59.719Z,10.55
2022-09-22T07:41:30.063Z,10.67
2022-09-22T07:44:19.209Z,10.81
2022-09-22T07:46:48.424Z,11.03
2022-09-22T07:49:17.647Z,11.22
2022-09-22T07:51:45.336Z,11.35
2022-09-22T07:54:13.329Z,11.50
2022-09-22T07:56:43.229Z,11.69
2022-09-22T07:59:13.530Z,11.75
2022-09-22T08:01:44.419Z,11.82
2022-09-22T08:04:16.546Z,12.00
2022-09-22T08:06:44.727Z,12.17
2022-09-22T08:09:14.511Z,12.23
2022-09-22T08:11:44.357Z,12.40
2022-09-22T08:14:13.069Z,12.57
2022-09-22T08:16:41.660Z,12.74
2022-09-22T08:19:12.434Z,12.88
2022-09-22T08:21:48.869Z,12.98
2022-09-22T08:24:21.311Z,13.20
2022-09-22T08:26:51.178Z,13.44
2022-09-22T08:29:19.206Z,13.54
2022-09-22T08:31:47.506Z,13.81
2022-09-22T08:34:17.535Z,13.90
2022-09-22T08:36:48.683Z,14.07
2022-09-22T08:39:17.909Z,14.34
2022-09-22T08:41:57.969Z,14.60
2022-09-22T08:44:30.195Z,14.66
2022-09-22T08:47:02.020Z,14.93
2022-09-22T08:49:54.590Z,15.13
2022-09-22T08:52:32.104Z,15.32
2022-09-22T08:55:02.586Z,15.62
2022-09-22T08:57:56.285Z,15.84
2022-09-22T09:00:25.809Z,16.05
2022-09-22T09:03:09.612Z,16.13
2022-09-22T09:06:02.496Z,16.06
2022-09-22T09:08:53.260Z,16.46
2022-09-22T09:11:32.466Z,16.64
2022-09-22T09:14:14.015Z,16.77
2022-09-22T09:16:49.942Z,16.92
2022-09-22T09:19:20.121Z,17.00
2022-09-22T09:21:52.867Z,17.33
2022-09-22T09:27:24.329Z,17.28
2022-09-22T09:30:01.233Z,17.28
2022-09-22T09:32:37.357Z,17.51
2022-09-22T09:35:07.404Z,18.08
2022-09-22T09:37:35.219Z,18.36
2022-09-22T09:40:08.682Z,18.49
2022-09-22T09:42:36.808Z,18.54
2022-09-22T09:45:06.549Z,18.76
2022-09-22T09:47:48.256Z,18.98
2022-09-22T09:50:16.987Z,19.65
2022-09-22T09:52:46.113Z,20.14
2022-09-22T09:55:26.730Z,20.36
2022-09-22T09:58:06.343Z,20.58
2022-09-22T10:00:34.910Z,20.54
2022-09-22T10:03:13.396Z,20.79
2022-09-22T10:05:41.443Z,20.77
2022-09-22T10:08:18.563Z,20.89
2022-09-22T10:10:49.289Z,21.40
2022-09-22T10:13:24.683Z,21.50
2022-09-22T10:16:24.850Z,21.53
2022-09-22T10:19:03.355Z,21.67
2022-09-22T10:21:31.204Z,22.04
2022-09-22T10:24:01.758Z,22.54
2022-09-22T10:26:32.431Z,23.05
2022-09-22T10:29:21.025Z,23.05
2022-09-22T10:32:03.569Z,23.30
2022-09-22T10:34:34.356Z,23.54
2022-09-22T10:37:04.757Z,23.58
2022-09-22T10:39:40.285Z,23.52
2022-09-22T10:42:21.107Z,23.03
2022-09-22T10:44:49.271Z,23.03
2022-09-22T10:47:31.090Z,22.84
2022-09-22T10:50:42.592Z,23.01
2022-09-22T10:53:26.414Z,22.51
2022-09-22T10:56:01.947Z,22.40
2022-09-22T10:58:56.246Z,22.29
2022-09-22T11:01:40.758Z,22.25
2022-09-22T11:04:22.135Z,22.30
2022-09-22T11:07:37.611Z,22.72
2022-09-22T11:10:32.414Z,22.83
2022-09-22T11:13:10.926Z,22.86
2022-09-22T11:16:04.800Z,23.09
2022-09-22T11:18:52.214Z,22.93
2022-09-22T11:21:33.117Z,22.81
2022-09-22T11:24:13.385Z,22.55
2022-09-22T11:26:48.435Z,21.93
2022-09-22T11:29:53.414Z,21.57
2022-09-22T11:32:38.441Z,21.04
2022-09-22T11:35:27.037Z,20.48
2022-09-22T11:38:13.468Z,20.15
2022-09-22T11:41:03.122Z,20.09
2022-09-22T11:43:59.083Z,19.85
2022-09-22T11:46:40.374Z,19.72
2022-09-22T11:49:24.919Z,19.78
2022-09-22T11:52:13.814Z,19.64
2022-09-22T11:55:04.779Z,19.51
2022-09-22T11:57:36.178Z,19.36
2022-09-22T12:00:13.140Z,19.38
2022-09-22T12:02:46.485Z,19.41
2022-09-22T12:05:20.541Z,19.28
2022-09-22T12:07:57.391Z,19.01
2022-09-22T12:10:33.829Z,18.84
2022-09-22T12:13:02.587Z,18.91
2022-09-22T12:15:38.736Z,18.95
2022-09-22T12:18:13.225Z,18.85
2022-09-22T12:20:57.683Z,18.80
2022-09-22T12:23:37.950Z,18.79
2022-09-22T12:26:09.402Z,18.87
2022-09-22T12:28:42.898Z,18.72
2022-09-22T12:31:14.185Z,18.74
2022-09-22T12:33:48.706Z,18.41
2022-09-22T12:36:20.070Z,18.55
2022-09-22T12:38:47.818Z,18.59
2022-09-22T12:41:20.249Z,18.54
2022-09-22T12:43:48.706Z,18.53
2022-09-22T12:46:27.863Z,18.56
2022-09-22T12:48:55.679Z,18.50
2022-09-22T12:51:34.014Z,18.48
2022-09-22T12:54:47.839Z,18.50
2022-09-22T12:57:29.303Z,18.61
2022-09-22T13:00:32.896Z,18.47
2022-09-22T13:03:22.253Z,18.50
2022-09-22T13:05:49.913Z,18.50
2022-09-22T13:08:23.832Z,18.55
2022-09-22T13:11:02.021Z,18.51
2022-09-22T13:13:39.735Z,18.51
2022-09-22T13:16:34.769Z,18.54
2022-09-22T13:19:03.459Z,18.39
2022-09-22T13:21:33.733Z,18.44
2022-09-22T13:24:05.048Z,18.36
2022-09-22T13:26:35.001Z,18.38
2022-09-22T13:29:06.914Z,18.31
2022-09-22T13:31:40.031Z,18.36
2022-09-22T13:34:31.088Z,18.35
2022-09-22T13:37:01.717Z,18.16
2022-09-22T13:39:34.378Z,18.22
2022-09-22T13:42:06.596Z,18.16
2022-09-22T13:44:37.972Z,17.85
2022-09-22T13:47:09.651Z,18.10
2022-09-22T13:49:42.199Z,18.09
2022-09-22T13:52:16.840Z,17.97
2022-09-22T13:54:49.053Z,17.81
2022-09-22T13:57:23.046Z,17.95
2022-09-22T13:59:52.526Z,17.84
2022-09-22T14:02:27.029Z,17.77
2022-09-22T14:05:01.535Z,17.68
2022-09-22T14:07:35.975Z,17.79
2022-09-22T14:10:09.649Z,17.79
2022-09-22T14:12:40.616Z,17.77
2022-09-22T14:15:33.629Z,17.81
2022-09-22T14:18:02.238Z,17.79
2022-09-22T14:20:30.001Z,17.74
2022-09-22T14:22:58.120Z,17.81
2022-09-22T14:25:27.261Z,17.77
2022-09-22T14:27:59.691Z,17.75
2022-09-22T14:30:31.045Z,17.72
2022-09-22T14:33:03.060Z,17.67
2022-09-22T14:35:33.367Z,17.70
2022-09-22T14:38:12.996Z,17.64
2022-09-22T14:40:53.993Z,17.72
2022-09-22T14:43:25.637Z,17.73
2022-09-22T14:45:58.101Z,17.67
2022-09-22T14:48:30.216Z,17.89
2022-09-22T14:51:02.827Z,18.46
2022-09-22T14:53:34.179Z,18.94
2022-09-22T14:56:07.264Z,19.70
2022-09-22T14:58:40.570Z,20.36
2022-09-22T15:01:39.584Z,20.57
2022-09-22T15:04:15.022Z,20.42
2022-09-22T15:06:43.242Z,20.03
2022-09-22T15:09:22.351Z,19.77
2022-09-22T15:11:53.249Z,19.80
2022-09-22T15:14:31.756Z,19.62
2022-09-22T15:17:19.615Z,19.45
2022-09-22T15:19:50.788Z,19.31
2022-09-22T15:22:18.702Z,19.14
2022-09-22T15:24:47.274Z,19.16
2022-09-22T15:27:17.777Z,19.43
2022-09-22T15:29:45.987Z,19.67
2022-09-22T15:32:14.130Z,19.94
2022-09-22T15:34:45.161Z,19.96
2022-09-22T15:37:17.159Z,19.93
2022-09-22T15:39:45.156Z,20.08
2022-09-22T15:42:12.997Z,20.06
2022-09-22T15:44:43.043Z,20.02
2022-09-22T15:47:16.592Z,20.41
2022-09-22T15:49:45.323Z,20.76
2022-09-22T15:52:12.977Z,21.14
2022-09-22T15:54:40.650Z,21.58
2022-09-22T15:57:08.347Z,22.01
2022-09-22T15:59:39.903Z,22.19
2022-09-22T16:02:12.570Z,22.31
2022-09-22T16:04:40.591Z,22.58
2022-09-22T16:07:13.761Z,22.37
2022-09-22T16:09:42.114Z,21.90
2022-09-22T16:12:13.701Z,21.23
2022-09-22T16:14:42.789Z,20.53
2022-09-22T16:17:11.794Z,19.86
2022-09-22T16:19:39.905Z,19.35
2022-09-22T16:22:07.751Z,19.10
2022-09-22T16:24:36.047Z,19.02
2022-09-22T16:27:07.278Z,18.88
2022-09-22T16:29:37.707Z,18.60
2022-09-22T16:32:05.554Z,18.39
2022-09-22T16:34:36.291Z,18.11
2022-09-22T16:37:04.184Z,17.87
2022-09-22T16:39:31.850Z,17.59
2022-09-22T16:41:59.527Z,17.34
2022-09-22T16:44:27.679Z,17.14
2022-09-22T16:46:55.427Z,16.92
2022-09-22T16:49:23.247Z,16.77
2022-09-22T16:51:55.007Z,16.56
2022-09-22T16:54:24.683Z,16.34
2022-09-22T16:56:53.786Z,16.17
2022-09-22T16:59:23.471Z,15.92
2022-09-22T17:01:51.634Z,15.78
2022-09-22T17:04:20.127Z,15.60
2022-09-22T17:06:48.551Z,15.49
2022-09-22T17:09:18.901Z,15.39
2022-09-22T17:11:49.073Z,15.20
2022-09-22T17:14:21.396Z,15.06
2022-09-22T17:16:51.863Z,14.95
2022-09-22T17:19:22.331Z,14.82
2022-09-22T17:21:53.941Z,14.64
2022-09-22T17:24:24.567Z,14.50
2022-09-22T17:26:53.937Z,14.34
2022-09-22T17:29:25.525Z,14.16
2022-09-22T17:31:56.430Z,13.97
2022-09-22T17:34:25.677Z,13.84
2022-09-22T17:36:55.347Z,13.72
2022-09-22T17:39:26.099Z,13.65
2022-09-22T17:41:53.978Z,13.59
2022-09-22T17:44:23.045Z,13.52
2022-09-22T17:47:10.017Z,13.48
2022-09-22T17:49:56.488Z,13.38
2022-09-22T17:52:41.944Z,13.31
2022-09-22T17:55:20.282Z,13.27
2022-09-22T17:57:48.110Z,13.23
2022-09-22T18:00:19.464Z,13.15
2022-09-22T18:02:47.437Z,13.08
2022-09-22T18:05:17.677Z,13.03
2022-09-22T18:07:45.339Z,12.97
2022-09-22T18:10:16.593Z,12.92
2022-09-22T18:12:44.550Z,12.87
2022-09-22T18:15:13.916Z,12.84
2022-09-22T18:17:42.966Z,12.78
2022-09-22T18:20:15.396Z,12.76
2022-09-22T18:22:48.231Z,12.74
2022-09-22T18:25:19.902Z,12.71
2022-09-22T18:27:48.205Z,12.62
2022-09-22T18:30:17.065Z,12.52
2022-09-22T18:32:44.730Z,12.42
2022-09-22T18:35:12.894Z,12.33
2022-09-22T18:37:40.961Z,12.24
2022-09-22T18:40:12.789Z,12.22
2022-09-22T18:42:44.698Z,12.17
2022-09-22T18:45:14.223Z,12.08
2022-09-22T18:47:43.435Z,12.02
2022-09-22T18:50:12.398Z,11.95
2022-09-22T18:52:42.891Z,11.88
2022-09-22T18:55:12.294Z,11.80
2022-09-22T18:57:40.075Z,11.74
2022-09-22T19:00:13.825Z,11.66
2022-09-22T19:02:41.763Z,11.58
2022-09-22T19:05:10.292Z,11.53
2022-09-22T19:07:43.821Z,11.44
2022-09-22T19:10:14.423Z,11.36
2022-09-22T19:12:42.814Z,11.27
2022-09-22T19:15:15.221Z,11.15
2022-09-22T19:17:44.551Z,11.09
2022-09-22T19:20:14.776Z,10.94
2022-09-22T19:22:42.543Z,10.83
2022-09-22T19:25:11.279Z,10.76
2022-09-22T19:27:39.735Z,10.73
2022-09-22T19:30:08.683Z,10.67
2022-09-22T19:32:38.141Z,10.63
2022-09-22T19:35:07.042Z,10.58
2022-09-22T19:37:34.752Z,10.49
2022-09-22T19:40:02.942Z,10.45
2022-09-22T19:42:30.656Z,10.40
2022-09-22T19:44:59.448Z,10.36
2022-09-22T19:47:27.220Z,10.30
2022-09-22T19:49:56.372Z,10.26
2022-09-22T19:52:24.041Z,10.22
2022-09-22T19:54:52.135Z,10.20
2022-09-22T19:57:19.786Z,10.15
2022-09-22T19:59:47.450Z,10.13
2022-09-22T20:02:15.943Z,10.04
2022-09-22T20:04:44.668Z,9.98
2022-09-22T20:07:13.824Z,9.94
2022-09-22T20:09:41.580Z,9.93
2022-09-22T20:12:09.313Z,9.90
2022-09-22T20:14:37.619Z,9.88
2022-09-22T20:17:08.008Z,9.81
2022-09-22T20:19:38.301Z,9.73
2022-09-22T20:22:25.073Z,9.67
2022-09-22T20:24:55.948Z,9.63
2022-09-22T20:27:25.304Z,9.54
2022-09-22T20:29:57.034Z,9.49
2022-09-22T20:32:26.152Z,9.48
2022-09-22T20:34:55.376Z,9.39
2022-09-22T20:37:25.150Z,9.34
2022-09-22T20:39:53.199Z,9.26
2022-09-22T20:42:20.885Z,9.21
2022-09-22T20:44:49.467Z,9.17
2022-09-22T20:47:19.697Z,9.14
2022-09-22T20:49:51.523Z,9.10
2022-09-22T20:52:20.862Z,9.06
2022-09-22T20:54:50.343Z,9.04
2022-09-22T20:57:18.348Z,8.97
2022-09-22T20:59:47.132Z,8.96
2022-09-22T21:02:15.915Z,8.95
2022-09-22T21:04:43.808Z,8.89
2022-09-22T21:07:12.227Z,8.90
2022-09-22T21:09:56.936Z,8.88
2022-09-22T21:12:30.707Z,8.91
2022-09-22T21:14:58.940Z,8.90
2022-09-22T21:17:27.675Z,8.86
2022-09-22T21:19:57.640Z,8.82
2022-09-22T21:22:28.021Z,8.79
2022-09-22T21:24:56.172Z,8.73
2022-09-22T21:27:24.707Z,8.68
2022-09-22T21:29:54.118Z,8.63
2022-09-22T21:32:21.795Z,8.61
2022-09-22T21:34:49.833Z,8.50
2022-09-22T21:37:17.490Z,8.39
2022-09-22T21:39:45.383Z,8.36
2022-09-22T21:42:13.096Z,8.31
2022-09-22T21:44:40.756Z,8.26
2022-09-22T21:47:11.135Z,8.25
2022-09-22T21:49:39.111Z,8.23
2022-09-22T21:52:06.838Z,8.17
2022-09-22T21:54:34.842Z,8.14
2022-09-22T21:57:02.505Z,8.13
2022-09-22T21:59:31.302Z,8.09
2022-09-22T22:01:59.017Z,8.05
2022-09-22T22:04:28.418Z,8.00
2022-09-22T22:06:56.102Z,7.95
2022-09-22T22:09:26.019Z,7.91
2022-09-22T22:11:56.281Z,7.89
2022-09-22T22:14:26.310Z,7.82
2022-09-22T22:16:55.670Z,7.86
2022-09-22T22:19:26.886Z,7.89
2022-09-22T22:21:56.303Z,7.89
2022-09-22T22:24:39.939Z,7.91
2022-09-22T22:27:10.876Z,7.91
2022-09-22T22:29:39.517Z,7.89
2022-09-22T22:32:09.470Z,7.89
2022-09-22T22:34:38.553Z,7.87
2022-09-22T22:37:10.027Z,7.86
2022-09-22T22:39:38.562Z,7.86
2022-09-22T22:42:07.303Z,7.84
2022-09-22T22:44:35.152Z,7.82
2022-09-22T22:47:03.024Z,7.77
2022-09-22T22:49:31.336Z,7.74
2022-09-22T22:51:59.047Z,7.74
2022-09-22T22:54:28.427Z,7.72
2022-09-22T22:56:56.170Z,7.75
2022-09-22T22:59:23.849Z,7.73
2022-09-22T23:01:51.589Z,7.70
2022-09-22T23:04:19.579Z,7.68
2022-09-22T23:06:48.441Z,7.62
2022-09-22T23:09:17.831Z,7.57
2022-09-22T23:11:47.536Z,7.55
2022-09-22T23:14:16.553Z,7.51
2022-09-22T23:16:46.050Z,7.48
2022-09-22T23:19:16.387Z,7.44
2022-09-22T23:21:44.979Z,7.40
2022-09-22T23:24:16.333Z,7.37
2022-09-22T23:26:44.662Z,7.35
2022-09-22T23:29:14.577Z,7.32
2022-09-22T23:31:42.353Z,7.28
2022-09-22T23:34:10.907Z,7.25
2022-09-22T23:36:39.492Z,7.19
2022-09-22T23:39:07.691Z,7.12
2022-09-22T23:41:37.317Z,7.04
2022-09-22T23:44:06.687Z,6.97
2022-09-22T23:46:38.259Z,6.89
2022-09-22T23:49:06.612Z,6.82
2022-09-22T23:51:34.748Z,6.76
2022-09-22T23:54:02.482Z,6.73
2022-09-22T23:56:30.568Z,6.68
2022-09-22T23:58:58.300Z,6.67
